Time;durP1;ratioP1;P1;durP2;ratioP2;P2;SDS_P1;SDS_P2;PMS_P1;PMS_P2;Temp;Humidity;BMP_temperature;BMP_pressure;BME280_temperature;BME280_humidity;BME280_pressure;Samples;Min_cycle;Max_cycle;Signal;HPM_P1;HPM_P2
2023/03/18 00:00:15;;;;;;;7.75;4.78;;;10.20;56.30;;;5.65;90.21;95170.44;4860007;29;20060;-49
2023/03/18 00:02:41;;;;;;;9.02;5.32;;;10.20;56.40;;;5.64;90.34;95171.47;4859222;29;20025;-49
2023/03/18 00:05:09;;;;;;;7.97;4.78;;;10.20;56.30;;;5.68;90.46;95180.53;4859736;29;20040;-52
2023/03/18 00:07:36;;;;;;;8.68;5.15;;;10.20;56.30;;;5.69;90.33;95177.63;4859914;29;20029;-48
2023/03/18 00:10:05;;;;;;;8.40;4.97;;;10.30;56.40;;;5.70;90.42;95181.91;4858940;29;20025;-51
2023/03/18 00:12:32;;;;;;;8.13;4.85;;;10.30;56.70;;;5.70;90.58;95189.00;4859745;29;20032;-50
2023/03/18 00:14:59;;;;;;;8.50;5.55;;;10.30;56.40;;;5.72;90.31;95189.56;4858695;29;20504;-52
2023/03/18 00:17:25;;;;;;;9.05;5.03;;;10.30;56.40;;;5.74;90.71;95187.50;4859941;29;20032;-49
2023/03/18 00:19:51;;;;;;;10.25;5.72;;;10.30;56.40;;;5.78;90.31;95197.31;4851814;29;20400;-51
2023/03/18 00:22:18;;;;;;;7.10;4.45;;;10.30;56.40;;;5.78;90.42;95192.03;4857501;29;20031;-49
2023/03/18 00:24:44;;;;;;;8.02;5.55;;;10.30;56.50;;;5.82;90.08;95194.97;4859660;29;20048;-50
2023/03/18 00:27:10;;;;;;;10.68;5.85;;;10.30;56.50;;;5.87;89.88;95202.19;4858475;29;20044;-49
2023/03/18 00:29:36;;;;;;;8.20;4.90;;;10.30;56.50;;;5.93;89.86;95207.34;4859480;29;20057;-51
2023/03/18 00:32:02;;;;;;;6.97;4.70;;;10.40;56.60;;;5.97;89.71;95202.34;4858605;29;20028;-52
2023/03/18 00:34:28;;;;;;;7.88;4.90;;;10.40;56.60;;;5.98;90.14;95201.31;4859601;29;20069;-53
2023/03/18 00:36:55;;;;;;;8.23;4.97;;;10.50;56.60;;;5.93;89.91;95202.06;4859645;29;20060;-48
2023/03/18 00:39:30;;;;;;;7.78;5.15;;;10.50;56.60;;;5.95;89.87;95201.78;4858589;29;20400;-49
2023/03/18 00:41:56;;;;;;;9.85;4.72;;;10.40;56.60;;;5.96;90.04;95200.78;4859673;29;20033;-49
2023/03/18 00:44:26;;;;;;;8.77;4.78;;;10.50;56.60;;;5.97;89.57;95203.16;4856032;29;20492;-50
2023/03/18 00:46:52;;;;;;;9.07;5.40;;;10.50;56.60;;;5.94;89.73;95210.78;4848824;29;20508;-51
2023/03/18 00:49:19;;;;;;;8.27;5.20;;;10.40;56.60;;;5.93;90.19;95203.91;4859297;29;20067;-50
2023/03/18 00:51:45;;;;;;;10.43;5.05;;;10.50;56.70;;;5.91;90.36;95212.03;4850809;29;20037;-48
2023/03/18 00:54:18;;;;;;;7.53;4.80;;;10.40;56.60;;;5.90;90.01;95215.72;4854837;29;20037;-50
2023/03/18 00:56:44;;;;;;;;;;;10.40;56.70;;;5.89;89.68;95216.78;4859047;29;20025;-50
2023/03/18 00:59:10;;;;;;;7.60;5.10;;;10.40;56.40;;;5.86;89.99;95213.78;4859064;29;19943;-49
2023/03/18 01:01:37;;;;;;;7.95;4.68;;;10.40;56.50;;;5.79;90.42;95212.13;4858193;29;20120;-49
2023/03/18 01:04:05;;;;;;;8.57;5.03;;;10.40;56.50;;;5.78;90.49;95207.88;4858304;29;20032;-50
2023/03/18 01:06:36;;;;;;;7.65;5.22;;;10.40;56.60;;;5.77;90.30;95208.94;4858911;29;20512;-51
2023/03/18 01:09:07;;;;;;;9.05;5.25;;;10.30;56.70;;;5.72;90.39;95203.56;4857109;29;20056;-50
2023/03/18 01:11:34;;;;;;;8.80;5.35;;;10.30;56.80;;;5.70;90.30;95205.69;4859265;29;20029;-49
2023/03/18 01:14:02;;;;;;;8.63;5.47;;;10.30;56.80;;;5.68;90.29;95205.09;4859025;29;20037;-49
2023/03/18 01:16:28;;;;;;;10.98;5.47;;;10.20;56.80;;;5.63;90.32;95198.94;4861623;29;20436;-48
2023/03/18 01:18:55;;;;;;;8.38;5.18;;;10.20;56.80;;;5.60;90.35;95202.06;4861495;29;20093;-49
2023/03/18 01:21:21;;;;;;;9.60;5.00;;;10.20;56.90;;;5.59;90.16;95201.28;4862395;29;20036;-48
2023/03/18 01:23:47;;;;;;;7.88;4.32;;;10.20;57.00;;;5.56;89.95;95204.41;4862517;29;20024;-49
2023/03/18 01:26:15;;;;;;;6.90;4.53;;;10.20;57.00;;;5.55;89.93;95200.97;4861619;29;20085;-50
2023/03/18 01:28:41;;;;;;;7.50;3.75;;;10.10;57.00;;;5.53;89.38;95203.03;4862465;29;20025;-51
2023/03/18 01:31:08;;;;;;;9.05;4.25;;;10.10;56.90;;;5.50;89.30;95197.44;4862745;29;20055;-49
2023/03/18 01:33:35;;;;;;;7.50;4.15;;;10.10;56.90;;;5.46;88.91;95197.13;4861646;29;20036;-49
2023/03/18 01:36:03;;;;;;;7.82;3.97;;;10.10;57.00;;;5.48;89.07;95199.50;4862499;29;20033;-48
2023/03/18 01:38:30;;;;;;;8.40;4.10;;;10.00;56.90;;;5.42;88.96;95200.47;4861390;29;20051;-51
2023/03/18 01:40:59;;;;;;;7.95;3.47;;;10.00;56.90;;;5.34;89.24;95197.22;4862234;29;20080;-50
2023/03/18 01:43:33;;;;;;;6.50;3.88;;;10.00;57.00;;;5.30;89.56;95198.72;4862423;29;20124;-51
2023/03/18 01:46:32;;;;;;;5.93;3.50;;;10.00;57.00;;;5.33;89.20;95194.81;4861541;29;20481;-49
2023/03/18 01:49:04;;;;;;;7.13;3.40;;;9.90;57.00;;;5.29;89.06;95197.13;4851108;29;20429;-49
2023/03/18 01:51:31;;;;;;;5.80;3.57;;;9.90;57.00;;;5.17;89.46;95195.59;4861336;29;20104;-51
2023/03/18 01:54:05;;;;;;;7.43;3.58;;;9.80;56.90;;;5.17;89.65;95191.13;4861979;29;20116;-50
2023/03/18 01:56:37;;;;;;;5.72;3.53;;;9.80;57.00;;;5.16;89.36;95194.81;4860024;29;20037;-52
2023/03/18 01:59:08;;;;;;;7.88;3.92;;;9.80;57.00;;;5.14;88.86;95193.44;4860761;29;20063;-50
2023/03/18 02:01:50;;;;;;;6.70;3.60;;;9.70;57.00;;;5.10;89.22;95190.47;4845689;29;20387;-50
2023/03/18 02:04:17;;;;;;;6.43;3.80;;;9.70;57.10;;;5.06;89.18;95184.88;4860091;29;20029;-50
2023/03/18 02:06:44;;;;;;;6.40;3.40;;;9.70;57.00;;;5.02;89.47;95186.41;4861066;29;20049;-48
2023/03/18 02:09:11;;;;;;;7.00;3.67;;;9.60;57.00;;;4.99;89.92;95188.72;4860915;29;20029;-48
2023/03/18 02:11:44;;;;;;;5.70;3.15;;;9.60;57.10;;;4.94;90.30;95180.72;4861831;29;20056;-48
2023/03/18 02:14:13;;;;;;;;;;;9.60;57.20;;;4.83;91.28;95191.09;4859816;29;20039;-50
2023/03/18 02:17:09;;;;;;;5.88;3.38;;;9.60;57.00;;;4.86;91.21;95185.34;4872882;29;19915;-48
2023/03/18 02:19:45;;;;;;;6.25;3.47;;;9.50;57.10;;;4.81;91.25;95190.53;4859628;29;20119;-48
2023/03/18 02:23:06;;;;;;;7.95;3.60;;;9.50;57.10;;;4.78;91.33;95203.41;4857971;29;20037;-49
2023/03/18 02:25:56;;;;;;;5.10;3.28;;;9.50;57.20;;;4.77;91.57;95185.97;4827014;29;20037;-51
2023/03/18 02:28:30;;;;;;;5.47;3.45;;;9.40;57.30;;;4.77;90.78;95184.13;4857578;29;20131;-51
2023/03/18 02:31:09;;;;;;;5.93;3.67;;;9.30;57.30;;;4.67;91.52;95183.97;4855980;29;20040;-48
2023/03/18 02:33:39;;;;;;;6.10;3.97;;;9.30;57.40;;;4.66;92.17;95198.16;4846727;29;20062;-48
2023/03/18 02:36:23;;;;;;;5.55;3.95;;;9.30;57.40;;;4.63;92.10;95198.63;4840129;29;20089;-48
2023/03/18 02:38:49;;;;;;;6.57;3.50;;;9.30;57.50;;;4.69;91.29;95197.69;4846564;29;20056;-48
2023/03/18 02:41:36;;;;;;;7.32;4.05;;;9.30;57.50;;;4.62;91.71;95195.22;4859440;29;20448;-48
2023/03/18 02:44:03;;;;;;;5.80;3.53;;;9.30;58.20;;;4.54;92.14;95182.38;4860453;29;20556;-49
2023/03/18 02:47:04;;;;;;;5.05;3.60;;;9.20;57.40;;;4.50;92.60;95188.38;4859543;29;20032;-48
2023/03/18 02:49:31;;;;;;;6.13;3.75;;;9.20;57.60;;;4.53;92.47;95185.28;4860189;29;20039;-49
2023/03/18 02:51:57;;;;;;;6.80;3.63;;;9.10;57.60;;;4.51;92.55;95185.53;4860186;29;20107;-51
2023/03/18 02:54:29;;;;;;;8.05;4.50;;;9.10;57.60;;;4.47;92.48;95183.56;4861290;29;20036;-49
2023/03/18 02:56:56;;;;;;;6.95;4.18;;;9.10;57.70;;;4.44;92.67;95181.41;4860549;29;20112;-48
2023/03/18 02:59:24;;;;;;;9.60;4.13;;;9.10;57.80;;;4.40;93.09;95186.34;4860103;29;20380;-48
2023/03/18 03:01:53;;;;;;;12.48;3.95;;;9.00;57.80;;;4.36;93.20;95183.38;4861389;29;20021;-51
2023/03/18 03:04:24;;;;;;;5.20;3.67;;;9.00;57.90;;;4.35;92.88;95186.25;4860299;29;20073;-48
2023/03/18 03:06:53;;;;;;;7.30;4.10;;;9.00;58.00;;;4.29;92.97;95185.34;4861099;29;20104;-48
2023/03/18 03:09:21;;;;;;;7.32;4.18;;;9.00;58.00;;;4.28;93.18;95181.13;4854963;29;20108;-50
2023/03/18 03:11:48;;;;;;;7.10;3.70;;;8.90;58.60;;;4.20;93.70;95184.13;4854466;29;20380;-48
2023/03/18 03:14:16;;;;;;;6.18;3.35;;;8.90;58.00;;;4.17;93.81;95192.50;4859605;29;20096;-48
2023/03/18 03:16:43;;;;;;;8.82;3.85;;;8.90;58.10;;;4.18;93.60;95187.00;4860863;29;20092;-49
2023/03/18 03:19:09;;;;;;;5.90;3.50;;;8.80;58.00;;;4.14;93.40;95191.13;4860749;29;20037;-53
2023/03/18 03:21:35;;;;;;;7.38;4.13;;;8.80;58.10;;;4.11;94.03;95199.50;4859924;29;20029;-53
2023/03/18 03:24:06;;;;;;;6.72;4.15;;;8.80;58.20;;;4.11;94.42;95190.81;4860509;29;20029;-50
2023/03/18 03:26:33;;;;;;;6.47;4.05;;;8.80;58.30;;;4.09;94.31;95198.13;4859680;29;20021;-50
2023/03/18 03:28:59;;;;;;;7.57;4.07;;;8.80;58.30;;;4.07;94.33;95203.63;4860638;29;20452;-48
2023/03/18 03:31:26;;;;;;;6.20;3.67;;;8.70;58.40;;;4.07;94.36;95205.47;4860485;29;20032;-50
2023/03/18 03:33:52;;;;;;;9.25;4.18;;;8.70;59.00;;;4.06;94.74;95198.59;4859563;29;20124;-52
2023/03/18 03:36:18;;;;;;;6.68;3.88;;;8.70;58.40;;;4.02;94.56;95200.09;4860542;29;20028;-51
2023/03/18 03:38:45;;;;;;;7.15;3.78;;;8.70;58.50;;;3.97;95.67;95207.91;4859528;29;20040;-52
2023/03/18 03:41:14;;;;;;;6.47;3.60;;;8.70;59.10;;;4.00;95.10;95197.69;4859860;29;20076;-54
2023/03/18 03:43:42;;;;;;;8.48;4.18;;;8.70;58.60;;;4.03;94.05;95194.59;4860317;29;20108;-54
2023/03/18 03:46:09;;;;;;;5.88;3.67;;;8.70;58.60;;;3.92;94.13;95203.34;4859306;29;20107;-52
2023/03/18 03:48:37;;;;;;;6.78;4.05;;;8.60;58.50;;;3.92;94.56;95200.69;4861351;29;20044;-52
2023/03/18 03:51:04;;;;;;;7.15;3.90;;;8.60;58.50;;;3.92;94.67;95208.59;4860677;29;20025;-55
2023/03/18 03:53:31;;;;;;;7.10;4.15;;;8.60;58.50;;;3.86;94.60;95204.25;4854948;29;20426;-54
2023/03/18 03:55:57;;;;;;;6.28;3.90;;;8.60;58.60;;;3.87;94.46;95200.59;4853495;29;20388;-51
2023/03/18 03:58:23;;;;;;;6.13;3.20;;;8.60;58.60;;;3.86;94.38;95206.91;4856534;29;20119;-50
2023/03/18 04:00:49;;;;;;;5.78;3.15;;;8.50;58.60;;;3.82;94.27;95211.81;4853178;29;20021;-54
2023/03/18 04:03:15;;;;;;;6.43;3.50;;;8.50;58.60;;;3.76;94.53;95207.47;4854634;29;20036;-53
2023/03/18 04:05:42;;;;;;;6.88;3.53;;;8.50;58.60;;;3.75;94.50;95195.31;4859707;29;20504;-53
2023/03/18 04:08:08;;;;;;;4.88;3.50;;;8.50;58.60;;;3.75;94.03;95205.84;4858873;29;20033;-50
2023/03/18 04:10:35;;;;;;;5.35;3.15;;;8.40;58.60;;;3.71;94.41;95208.16;4858886;29;20528;-50
2023/03/18 04:13:04;;;;;;;5.88;3.30;;;8.40;58.70;;;3.59;95.70;95204.72;4859075;29;20540;-50
2023/03/18 04:15:30;;;;;;;5.75;3.50;;;8.40;58.70;;;3.59;95.43;95203.94;4858371;29;20077;-50
2023/03/18 04:17:56;;;;;;;5.53;3.50;;;8.30;58.70;;;3.59;94.79;95207.34;4858673;29;20039;-50
2023/03/18 04:20:22;;;;;;;7.80;3.60;;;8.30;58.70;;;3.54;94.97;95214.34;4857895;29;20028;-50
2023/03/18 04:22:48;;;;;;;5.53;3.80;;;8.30;58.80;;;3.51;95.48;95213.00;4859208;29;20025;-50
2023/03/18 04:25:14;;;;;;;5.97;3.45;;;8.20;58.80;;;3.49;95.31;95209.78;4859774;29;20035;-50
2023/03/18 04:27:41;;;;;;;5.68;3.78;;;8.20;58.90;;;3.46;95.38;95205.75;4856935;29;20021;-52
2023/03/18 04:30:12;;;;;;;6.82;3.67;;;8.20;59.00;;;3.45;96.07;95211.28;4870512;29;20445;-48
2023/03/18 04:32:38;;;;;;;6.43;3.17;;;8.10;59.00;;;3.46;96.24;95205.75;4858101;29;20036;-50
2023/03/18 04:35:05;;;;;;;5.10;3.15;;;8.10;59.10;;;3.45;96.35;95214.69;4859097;29;20076;-50
2023/03/18 04:37:33;;;;;;;5.07;3.08;;;8.10;59.20;;;3.43;96.56;95214.13;4859288;29;20588;-54
2023/03/18 04:40:00;;;;;;;5.95;3.00;;;8.10;59.20;;;3.44;96.27;95213.06;4858336;29;20037;-52
2023/03/18 04:42:26;;;;;;;5.47;3.20;;;8.10;59.20;;;3.46;96.28;95216.28;4859017;29;20065;-50
2023/03/18 04:44:52;;;;;;;6.57;3.03;;;8.10;59.20;;;3.48;95.38;95216.09;4853068;29;20062;-48
2023/03/18 04:47:18;;;;;;;5.53;3.15;;;8.10;59.20;;;3.47;95.42;95223.16;4858984;29;20430;-49
2023/03/18 04:49:44;;;;;;;5.53;2.85;;;8.10;59.20;;;3.44;94.63;95220.97;4859365;29;20127;-50
2023/03/18 04:52:10;;;;;;;5.25;3.03;;;8.10;59.20;;;3.36;95.63;95216.06;4858132;29;20076;-49
2023/03/18 04:54:37;;;;;;;5.25;2.88;;;8.10;59.20;;;3.35;94.89;95213.66;4858438;29;20519;-48
2023/03/18 04:57:05;;;;;;;5.78;3.08;;;8.10;59.20;;;3.32;94.43;95216.72;4861458;29;20504;-49
2023/03/18 04:59:31;;;;;;;5.43;3.20;;;8.00;59.10;;;3.19;95.45;95212.47;4863067;29;20441;-48
2023/03/18 05:01:57;;;;;;;4.97;2.88;;;7.90;59.10;;;3.11;95.73;95205.72;4862303;29;20021;-50
2023/03/18 05:06:57;;;;;;;4.97;2.65;;;7.90;59.20;;;3.13;95.11;95210.75;4893452;29;20055;-51
2023/03/18 05:09:24;;;;;;;4.57;2.65;;;7.80;59.10;;;3.03;96.06;95215.78;4890902;29;20044;-49
2023/03/18 05:11:50;;;;;;;4.57;3.10;;;7.80;59.10;;;2.94;96.08;95212.66;4899242;29;20032;-49
2023/03/18 05:14:16;;;;;;;3.78;2.85;;;7.70;59.10;;;2.95;96.16;95209.03;4898439;29;20035;-49
2023/03/18 05:16:42;;;;;;;3.95;2.83;;;7.70;59.10;;;2.92;96.55;95204.22;4877691;29;20016;-49
2023/03/18 05:19:08;;;;;;;5.50;2.97;;;7.70;59.20;;;2.90;96.01;95209.69;4881097;29;20036;-51
2023/03/18 05:21:35;;;;;;;3.83;2.75;;;7.60;59.20;;;2.82;96.90;95215.28;4874682;29;20063;-49
2023/03/18 05:24:01;;;;;;;5.82;2.88;;;7.60;59.30;;;2.80;96.75;95206.00;4880837;29;20032;-52
2023/03/18 05:26:28;;;;;;;6.65;3.30;;;7.60;59.30;;;2.84;96.96;95212.41;4879873;29;20127;-49
2023/03/18 05:28:54;;;;;;;6.50;3.15;;;7.60;59.30;;;2.83;96.53;95210.81;4880793;29;20032;-49
2023/03/18 05:31:20;;;;;;;3.45;2.40;;;7.50;59.40;;;2.75;96.56;95220.63;4880509;29;20052;-54
2023/03/18 05:33:46;;;;;;;5.10;2.78;;;7.50;59.40;;;2.72;97.14;95212.38;4879606;29;20099;-52
2023/03/18 05:36:13;;;;;;;3.30;2.53;;;7.50;59.40;;;2.75;97.31;95204.03;4880570;29;20377;-49
2023/03/18 05:38:39;;;;;;;5.15;2.83;;;7.50;59.50;;;2.75;96.97;95202.22;4879683;29;20126;-49
2023/03/18 05:41:06;;;;;;;4.65;3.30;;;7.50;59.60;;;2.73;97.39;95208.75;4880379;29;20160;-49
2023/03/18 05:43:31;;;;;;;8.00;3.67;;;7.40;59.50;;;2.74;97.57;95205.88;4880584;29;20103;-49
2023/03/18 05:45:58;;;;;;;7.38;3.05;;;7.40;59.60;;;2.77;97.21;95202.78;4878913;29;20492;-49
2023/03/18 05:48:24;;;;;;;6.88;3.03;;;7.50;59.70;;;2.78;97.39;95196.50;4880763;29;20111;-50
2023/03/18 05:50:51;;;;;;;5.03;3.03;;;7.50;59.70;;;2.83;97.37;95201.09;4879449;29;20072;-49
2023/03/18 05:53:17;;;;;;;5.97;2.95;;;7.50;59.80;;;2.86;97.39;95200.66;4880437;29;20546;-50
2023/03/18 05:55:43;;;;;;;5.50;2.60;;;7.60;59.80;;;2.90;97.09;95199.16;4880325;29;20069;-49
2023/03/18 05:58:10;;;;;;;5.32;2.38;;;7.60;59.80;;;2.95;97.13;95201.13;4878694;29;20040;-51
2023/03/18 06:00:36;;;;;;;4.88;2.58;;;7.70;59.90;;;2.95;97.77;95199.31;4888646;29;20040;-52
2023/03/18 06:03:03;;;;;;;4.97;2.55;;;7.70;59.80;;;3.03;97.11;95203.41;4877528;29;20487;-49
2023/03/18 06:05:29;;;;;;;3.75;2.65;;;7.70;59.80;;;3.08;96.47;95206.19;4882073;29;20072;-49
2023/03/18 06:07:57;;;;;;;3.83;2.28;;;7.80;59.80;;;3.10;96.65;95208.56;4877524;29;20024;-53
2023/03/18 06:10:25;;;;;;;6.53;2.67;;;7.80;59.70;;;3.12;96.68;95206.53;4881601;29;20024;-49
2023/03/18 06:12:54;;;;;;;5.72;2.08;;;7.90;59.80;;;3.17;96.54;95209.28;4885792;29;20029;-51
2023/03/18 06:15:21;;;;;;;3.28;2.47;;;7.90;59.70;;;3.21;96.27;95210.44;4878383;29;20032;-50
2023/03/18 06:17:48;;;;;;;7.32;2.00;;;8.00;59.80;;;3.25;96.33;95211.56;4879912;29;20029;-52
2023/03/18 06:20:15;;;;;;;4.80;2.33;;;8.00;59.70;;;3.33;96.29;95210.47;4881685;29;20028;-50
2023/03/18 06:22:42;;;;;;;5.68;2.00;;;8.10;59.80;;;3.40;95.85;95214.56;4879573;29;20082;-49
2023/03/18 06:25:08;;;;;;;3.00;1.92;;;8.10;59.70;;;3.42;95.48;95215.16;4880057;29;20029;-49
2023/03/18 06:27:35;;;;;;;3.95;2.15;;;8.20;59.70;;;3.47;95.71;95217.09;4878488;29;20027;-49
2023/03/18 06:30:03;;;;;;;5.07;2.20;;;8.20;59.70;;;3.53;96.12;95223.28;4879865;29;20035;-49
2023/03/18 06:32:31;;;;;;;3.03;2.20;;;8.20;59.60;;;3.61;96.26;95223.75;4878394;29;20036;-49
2023/03/18 06:34:57;;;;;;;6.22;2.08;;;8.30;59.70;;;3.72;95.46;95224.75;4879740;29;20076;-49
2023/03/18 06:37:23;;;;;;;2.40;1.60;;;8.40;59.70;;;3.75;95.47;95219.03;4879544;29;20032;-49
2023/03/18 06:39:49;;;;;;;6.13;2.30;;;8.40;59.70;;;3.78;96.10;95228.31;4878498;29;20088;-50
2023/03/18 06:42:16;;;;;;;3.83;1.92;;;8.50;59.70;;;3.88;95.79;95223.25;4876722;29;20436;-50
2023/03/18 06:44:49;;;;;;;5.25;2.05;;;8.60;59.70;;;4.04;95.00;95221.75;4878241;29;20107;-49
2023/03/18 06:47:17;;;;;;;;;;;8.70;59.70;;;4.21;93.70;95224.47;4879986;29;20024;-49
2023/03/18 06:49:43;;;;;;;5.75;2.30;;;8.80;59.50;;;4.33;93.20;95230.53;4879570;29;19907;-50
2023/03/18 06:52:09;;;;;;;2.17;1.77;;;8.90;59.50;;;4.48;93.48;95228.19;4878231;29;20354;-49
2023/03/18 06:54:35;;;;;;;3.88;1.88;;;9.10;59.60;;;4.67;93.88;95226.19;4872889;29;20025;-49
2023/03/18 06:57:01;;;;;;;3.22;1.98;;;9.20;59.60;;;4.87;93.38;95225.72;4876665;29;20043;-49
2023/03/18 06:59:27;;;;;;;6.50;2.13;;;9.50;59.60;;;5.06;93.34;95224.47;4879106;29;20119;-52
2023/03/18 07:01:53;;;;;;;3.95;1.70;;;9.70;59.50;;;5.23;92.30;95229.78;4877314;29;20463;-53
2023/03/18 07:04:19;;;;;;;2.22;1.90;;;9.90;59.40;;;5.48;91.78;95223.28;4877299;29;20123;-49
2023/03/18 07:06:45;;;;;;;2.78;1.63;;;10.20;59.20;;;5.72;91.28;95223.91;4876370;29;20639;-49
2023/03/18 07:09:13;;;;;;;4.43;1.77;;;10.60;59.00;;;6.02;91.09;95221.75;4867995;29;20060;-52
2023/03/18 07:11:39;;;;;;;2.42;1.60;;;10.90;58.80;;;6.44;89.71;95226.47;4877440;29;20035;-49
2023/03/18 07:14:06;;;;;;;3.03;1.70;;;11.40;58.50;;;6.92;86.91;95234.66;4878659;29;20032;-50
2023/03/18 07:16:33;;;;;;;6.43;2.17;;;11.90;58.10;;;7.42;81.11;95230.88;4876056;29;20032;-50
2023/03/18 07:18:59;;;;;;;2.28;1.65;;;12.50;57.70;;;8.00;80.31;95239.00;4878794;29;20503;-50
2023/03/18 07:21:26;;;;;;;4.07;2.05;;;13.10;57.30;;;8.57;74.18;95240.91;4880537;29;20132;-50
2023/03/18 07:23:54;;;;;;;3.00;2.20;;;13.60;56.60;;;9.18;71.56;95238.41;4878814;29;20032;-50
2023/03/18 07:26:20;;;;;;;4.70;2.05;;;14.20;56.10;;;9.67;67.19;95237.09;4868686;29;20400;-51
2023/03/18 07:28:47;;;;;;;3.50;1.85;;;14.90;55.40;;;10.11;64.80;95239.19;4878555;29;20551;-49
2023/03/18 07:31:13;;;;;;;3.05;2.08;;;15.40;54.50;;;10.56;62.81;95234.81;4877927;29;20024;-50
2023/03/18 07:33:39;;;;;;;2.67;1.65;;;16.00;53.70;;;11.04;60.63;95241.25;4876925;29;20036;-51
2023/03/18 07:36:06;;;;;;;4.90;1.95;;;16.50;52.80;;;11.49;58.28;95252.69;4878392;29;20383;-50
2023/03/18 07:38:32;;;;;;;3.95;1.90;;;17.00;52.00;;;11.94;57.00;95252.63;4877542;29;20043;-50
2023/03/18 07:40:58;;;;;;;3.08;2.00;;;17.50;51.30;;;12.26;54.90;95250.19;4877788;29;20035;-50
2023/03/18 07:43:25;;;;;;;3.45;2.00;;;18.00;51.00;;;12.55;54.02;95246.66;4877799;29;20024;-51
2023/03/18 07:45:51;;;;;;;2.30;2.05;;;18.40;49.40;;;12.64;53.43;95255.66;4825497;29;29536;-53
2023/03/18 07:48:16;;;;;;;3.42;1.88;;;18.80;48.60;;;12.78;53.03;95254.94;4877319;29;20029;-50
2023/03/18 07:50:42;;;;;;;3.70;1.85;;;19.20;47.80;;;13.15;51.88;95257.69;4876923;29;20021;-50
2023/03/18 07:53:09;;;;;;;5.95;2.05;;;19.50;47.00;;;13.43;51.12;95261.31;4878171;29;20032;-52
2023/03/18 07:55:35;;;;;;;2.95;1.52;;;19.70;46.30;;;13.78;49.31;95263.75;4877416;29;20115;-50
2023/03/18 07:58:01;;;;;;;2.72;1.80;;;20.10;45.60;;;14.11;48.98;95243.91;4876889;29;20612;-51
2023/03/18 08:00:28;;;;;;;3.20;2.10;;;20.40;45.00;;;14.52;47.81;95251.25;4876716;29;20388;-51
2023/03/18 08:02:54;;;;;;;2.95;1.70;;;20.70;44.20;;;14.77;47.56;95247.28;4877093;29;20032;-50
2023/03/18 08:05:20;;;;;;;3.90;2.25;;;21.00;43.70;;;15.09;46.60;95245.53;4877670;29;20052;-50
2023/03/18 08:07:47;;;;;;;3.17;1.60;;;21.20;42.90;;;15.38;45.81;95247.06;4878270;29;20107;-50
2023/03/18 08:10:14;;;;;;;2.53;1.90;;;21.50;42.40;;;15.46;46.16;95244.47;4873234;29;20048;-51
2023/03/18 08:12:41;;;;;;;3.90;2.20;;;21.70;42.00;;;15.59;45.79;95239.34;4873419;29;20064;-50
2023/03/18 08:15:08;;;;;;;3.50;2.00;;;21.90;41.50;;;15.87;44.23;95237.38;4875155;29;20028;-50
2023/03/18 08:17:35;;;;;;;4.07;2.13;;;22.10;40.90;;;16.18;45.00;95250.84;4877046;29;20028;-53
2023/03/18 08:20:01;;;;;;;2.80;1.95;;;22.30;40.40;;;16.40;44.42;95250.00;4874732;29;20029;-50
2023/03/18 08:22:27;;;;;;;3.53;2.25;;;22.60;40.10;;;16.56;43.88;95247.69;4875397;29;20035;-51
2023/03/18 08:24:53;;;;;;;2.50;1.83;;;22.80;40.20;;;16.66;43.51;95253.56;4873159;29;20395;-51
2023/03/18 08:27:19;;;;;;;3.15;2.20;;;23.10;39.20;;;16.74;42.29;95257.41;4875767;29;20043;-55
2023/03/18 08:29:45;;;;;;;2.45;2.05;;;23.20;38.50;;;17.01;41.34;95256.41;4876494;29;20029;-52
2023/03/18 08:32:12;;;;;;;3.50;2.03;;;23.50;38.70;;;16.98;41.15;95265.09;4876853;29;20032;-53
2023/03/18 08:34:38;;;;;;;2.63;2.25;;;23.60;37.60;;;17.24;39.73;95262.47;4875997;29;20758;-50
2023/03/18 08:37:04;;;;;;;3.97;2.15;;;23.80;37.00;;;17.38;39.36;95256.16;4874229;29;20032;-51
2023/03/18 08:39:31;;;;;;;5.43;2.00;;;24.00;36.50;;;17.70;37.75;95249.50;4874265;29;20040;-51
2023/03/18 08:41:58;;;;;;;3.85;2.05;;;24.20;36.00;;;17.80;38.03;95250.03;4876553;29;20039;-51
2023/03/18 08:44:25;;;;;;;4.32;2.30;;;24.50;36.30;;;18.03;38.53;95252.53;4875936;29;20459;-53
2023/03/18 08:46:50;;;;;;;3.97;2.00;;;24.70;35.00;;;18.12;37.76;95256.00;4876656;29;20052;-50
2023/03/18 08:49:17;;;;;;;5.15;2.45;;;24.80;34.50;;;18.01;38.34;95254.75;4876208;29;20063;-51
2023/03/18 08:51:43;;;;;;;5.30;2.35;;;25.00;34.10;;;18.08;37.05;95254.25;4876002;29;20479;-50
2023/03/18 08:54:09;;;;;;;3.67;2.40;;;25.20;33.50;;;18.56;37.09;95253.19;4879982;29;20036;-52
2023/03/18 08:56:35;;;;;;;4.00;2.13;;;25.30;33.20;;;18.75;36.61;95255.53;4875597;29;20058;-50
2023/03/18 08:59:01;;;;;;;4.57;2.28;;;25.40;32.90;;;18.88;36.30;95258.00;4876288;29;20056;-51
2023/03/18 09:01:27;;;;;;;3.47;2.22;;;25.60;32.70;;;18.76;37.19;95249.00;4876353;29;20032;-53
2023/03/18 09:03:56;;;;;;;3.60;2.30;;;25.80;32.40;;;18.49;35.58;95243.69;4875392;29;20032;-51
2023/03/18 09:06:22;;;;;;;4.07;2.10;;;25.90;31.90;;;18.67;34.89;95244.41;4876409;29;20087;-54
2023/03/18 09:08:49;;;;;;;4.97;2.35;;;25.90;31.40;;;18.64;35.77;95242.34;4875309;29;20060;-52
2023/03/18 09:11:16;;;;;;;2.65;2.25;;;26.00;31.20;;;18.82;34.60;95245.00;4876483;29;20472;-53
2023/03/18 09:13:42;;;;;;;2.40;2.20;;;26.10;30.80;;;19.12;34.89;95241.19;4876504;29;20447;-51
2023/03/18 09:16:09;;;;;;;2.72;2.20;;;26.20;30.60;;;19.21;33.89;95241.16;4875582;29;20041;-54
2023/03/18 09:18:36;;;;;;;2.20;2.00;;;26.30;30.10;;;19.49;34.28;95240.63;4876865;29;20480;-52
2023/03/18 09:21:03;;;;;;;2.60;2.25;;;26.40;30.00;;;19.75;33.69;95240.47;4875306;29;20100;-52
2023/03/18 09:23:31;;;;;;;2.40;2.20;;;26.50;29.90;;;19.69;32.13;95236.38;4874915;29;20398;-53
2023/03/18 09:25:58;;;;;;;3.15;2.08;;;26.70;29.70;;;19.66;32.75;95229.72;4876381;29;20035;-52
2023/03/18 09:28:25;;;;;;;3.25;2.45;;;26.90;29.30;;;19.84;33.56;95224.97;4868749;29;20488;-51
2023/03/18 09:30:52;;;;;;;4.10;2.25;;;27.10;29.20;;;19.96;33.34;95230.44;4875834;29;20033;-54
2023/03/18 09:33:19;;;;;;;3.55;2.35;;;27.20;29.00;;;20.31;33.81;95230.06;4875819;29;20387;-51
2023/03/18 09:35:45;;;;;;;4.18;2.42;;;27.50;28.90;;;20.61;32.66;95232.63;4876192;29;20032;-53
2023/03/18 09:38:19;;;;;;;2.83;2.15;;;27.70;28.90;;;20.63;33.59;95219.53;4875942;29;20373;-52
2023/03/18 09:41:34;;;;;;;3.50;2.70;;;27.80;28.60;;;21.13;33.27;95226.53;4872639;29;20056;-51
2023/03/18 09:44:35;;;;;;;3.22;2.58;;;28.20;28.80;;;21.45;31.33;95224.81;4863120;29;20044;-53
2023/03/18 09:47:48;;;;;;;4.80;2.75;;;28.50;28.40;;;21.59;31.42;95222.53;4876394;29;20437;-53
2023/03/18 09:50:38;;;;;;;3.75;2.75;;;28.70;28.30;;;21.62;32.36;95221.03;4878026;29;20032;-57
2023/03/18 09:53:53;;;;;;;4.07;2.80;;;29.00;28.00;;;21.82;29.81;95220.06;4878885;29;20039;-52
2023/03/18 09:56:31;;;;;;;3.38;2.33;;;29.20;27.70;;;21.70;30.16;95217.41;4870700;29;20051;-54
2023/03/18 09:59:41;;;;;;;3.40;2.60;;;29.30;27.30;;;21.94;30.66;95214.59;4872243;29;20079;-56
2023/03/18 10:02:35;;;;;;;5.22;2.95;;;29.40;27.10;;;22.17;29.93;95208.63;4873383;29;20488;-53
2023/03/18 10:05:28;;;;;;;5.43;2.75;;;29.60;26.90;;;21.85;30.26;95213.16;4881408;29;20043;-51
2023/03/18 10:08:17;;;;;;;4.38;2.92;;;29.60;26.70;;;21.91;31.08;95215.28;4898134;29;20028;-54
2023/03/18 10:10:47;;;;;;;3.40;2.85;;;29.70;26.60;;;22.15;30.14;95219.00;4882492;29;20493;-55
2023/03/18 10:13:44;;;;;;;5.55;3.15;;;29.80;26.40;;;22.07;29.55;95217.25;4881208;29;20391;-51
2023/03/18 10:16:25;;;;;;;5.15;3.30;;;30.00;26.30;;;22.10;29.58;95211.13;4880789;29;20509;-53
2023/03/18 10:18:52;;;;;;;5.88;3.83;;;30.10;25.90;;;22.39;28.92;95215.41;4897377;29;20087;-54
2023/03/18 10:22:01;;;;;;;5.05;3.45;;;30.20;26.10;;;22.36;29.47;95210.66;4879820;29;20024;-53
2023/03/18 10:24:58;;;;;;;5.90;2.83;;;30.40;25.90;;;22.67;28.40;95200.97;4882628;29;20028;-55
2023/03/18 10:27:52;;;;;;;7.65;3.40;;;30.50;25.60;;;22.42;28.20;95201.13;4903279;29;20032;-51
2023/03/18 10:30:53;;;;;;;4.53;3.08;;;30.70;25.50;;;22.73;27.72;95205.00;4897125;29;20063;-54
2023/03/18 10:34:02;;;;;;;3.13;2.63;;;30.80;25.20;;;22.89;28.79;95205.75;4884674;29;20032;-54
2023/03/18 10:37:04;;;;;;;4.97;2.97;;;31.00;25.50;;;22.78;28.21;95200.09;4869008;29;20033;-56
2023/03/18 10:39:33;;;;;;;3.65;2.90;;;31.10;25.10;;;23.01;28.39;95191.31;4887563;29;20102;-52
2023/03/18 10:42:21;;;;;;;3.40;2.83;;;31.20;25.00;;;23.26;26.90;95194.59;4897487;29;20028;-51